sensor_id;sensor_type;location;lat;lon;timestamp;pressure;altitude;pressure_sealevel;temperature;humidity
36062;BME280;22123;52.412;20.970;2023-07-02T00:01:02;99445.41;;;16.77;100.00
36062;BME280;22123;52.412;20.970;2023-07-02T00:03:28;99452.97;;;16.75;100.00
36062;BME280;22123;52.412;20.970;2023-07-02T00:05:54;99453.22;;;16.73;100.00
36062;BME280;22123;52.412;20.970;2023-07-02T00:08:21;99446.47;;;16.64;100.00
36062;BME280;22123;52.412;20.970;2023-07-02T00:10:47;99465.94;;;16.73;100.00
36062;BME280;22123;52.412;20.970;2023-07-02T00:13:13;99468.56;;;16.67;100.00
36062;BME280;22123;52.412;20.970;2023-07-02T00:15:39;99446.47;;;16.52;100.00
36062;BME280;22123;52.412;20.970;2023-07-02T00:18:05;99456.75;;;16.62;100.00
36062;BME280;22123;52.412;20.970;2023-07-02T00:20:30;99445.41;;;16.53;100.00
36062;BME280;22123;52.412;20.970;2023-07-02T00:22:56;99474.59;;;16.58;100.00
36062;BME280;22123;52.412;20.970;2023-07-02T00:25:22;99460.06;;;16.52;100.00
36062;BME280;22123;52.412;20.970;2023-07-02T00:27:48;99460.91;;;16.52;100.00
36062;BME280;22123;52.412;20.970;2023-07-02T00:30:14;99434.56;;;16.29;100.00
36062;BME280;22123;52.412;20.970;2023-07-02T00:32:39;99434.66;;;16.23;100.00
36062;BME280;22123;52.412;20.970;2023-07-02T00:35:05;99458.28;;;16.34;100.00
36062;BME280;22123;52.412;20.970;2023-07-02T00:37:31;99472.22;;;16.38;100.00
36062;BME280;22123;52.412;20.970;2023-07-02T00:39:57;99422.84;;;16.05;100.00
36062;BME280;22123;52.412;20.970;2023-07-02T00:42:23;99467.16;;;16.29;100.00
36062;BME280;22123;52.412;20.970;2023-07-02T00:44:49;99433.81;;;16.10;100.00
36062;BME280;22123;52.412;20.970;2023-07-02T00:47:14;99459.69;;;16.25;100.00
36062;BME280;22123;52.412;20.970;2023-07-02T00:49:41;99441.28;;;16.15;100.00
36062;BME280;22123;52.412;20.970;2023-07-02T00:52:07;99425.41;;;16.00;100.00
36062;BME280;22123;52.412;20.970;2023-07-02T00:54:32;99459.81;;;16.18;100.00
36062;BME280;22123;52.412;20.970;2023-07-02T00:56:58;99464.03;;;16.14;100.00
36062;BME280;22123;52.412;20.970;2023-07-02T00:59:24;99404.84;;;15.80;100.00
36062;BME280;22123;52.412;20.970;2023-07-02T01:01:50;99452.22;;;16.08;100.00
36062;BME280;22123;52.412;20.970;2023-07-02T01:04:19;99441.13;;;15.98;100.00
36062;BME280;22123;52.412;20.970;2023-07-02T01:06:44;99423.38;;;15.84;100.00
36062;BME280;22123;52.412;20.970;2023-07-02T01:09:10;99443.59;;;15.99;100.00
36062;BME280;22123;52.412;20.970;2023-07-02T01:11:43;99410.72;;;15.77;100.00
36062;BME280;22123;52.412;20.970;2023-07-02T01:14:15;99428.56;;;15.85;100.00
36062;BME280;22123;52.412;20.970;2023-07-02T01:16:43;99423.38;;;15.84;100.00
36062;BME280;22123;52.412;20.970;2023-07-02T01:19:57;99423.59;;;15.82;100.00
36062;BME280;22123;52.412;20.970;2023-07-02T01:21:57;99412.75;;;15.82;100.00
36062;BME280;22123;52.412;20.970;2023-07-02T01:24:23;99437.69;;;16.03;100.00
36062;BME280;22123;52.412;20.970;2023-07-02T01:26:49;99400.63;;;15.85;100.00
36062;BME280;22123;52.412;20.970;2023-07-02T01:29:19;99418.34;;;15.99;100.00
36062;BME280;22123;52.412;20.970;2023-07-02T01:31:46;99435.94;;;16.20;100.00
36062;BME280;22123;52.412;20.970;2023-07-02T01:34:12;99413.03;;;16.16;100.00
36062;BME280;22123;52.412;20.970;2023-07-02T01:36:39;99410.69;;;16.20;100.00
36062;BME280;22123;52.412;20.970;2023-07-02T01:39:05;99405.03;;;16.21;100.00
36062;BME280;22123;52.412;20.970;2023-07-02T01:41:42;99395.81;;;16.22;100.00
36062;BME280;22123;52.412;20.970;2023-07-02T01:44:08;99392.41;;;16.27;100.00
36062;BME280;22123;52.412;20.970;2023-07-02T01:46:34;99416.50;;;16.47;100.00
36062;BME280;22123;52.412;20.970;2023-07-02T01:48:59;99389.22;;;16.30;100.00
36062;BME280;22123;52.412;20.970;2023-07-02T01:51:25;99416.00;;;16.50;100.00
36062;BME280;22123;52.412;20.970;2023-07-02T01:53:51;99401.72;;;16.43;100.00
36062;BME280;22123;52.412;20.970;2023-07-02T01:56:17;99421.53;;;16.55;100.00
36062;BME280;22123;52.412;20.970;2023-07-02T01:58:42;99375.97;;;16.33;100.00
36062;BME280;22123;52.412;20.970;2023-07-02T02:01:08;99419.78;;;16.61;100.00
36062;BME280;22123;52.412;20.970;2023-07-02T02:03:34;99419.53;;;16.62;100.00
36062;BME280;22123;52.412;20.970;2023-07-02T02:06:00;99419.06;;;16.65;100.00
36062;BME280;22123;52.412;20.970;2023-07-02T02:08:25;99375.84;;;16.40;100.00
36062;BME280;22123;52.412;20.970;2023-07-02T02:10:51;99413.50;;;16.72;100.00
36062;BME280;22123;52.412;20.970;2023-07-02T02:13:17;99373.13;;;16.52;100.00
36062;BME280;22123;52.412;20.970;2023-07-02T02:15:43;99417.16;;;16.78;100.00
36062;BME280;22123;52.412;20.970;2023-07-02T02:18:08;99402.16;;;16.75;100.00
36062;BME280;22123;52.412;20.970;2023-07-02T02:20:34;99383.72;;;16.65;100.00
36062;BME280;22123;52.412;20.970;2023-07-02T02:23:00;99406.63;;;16.81;100.00
36062;BME280;22123;52.412;20.970;2023-07-02T02:25:26;99381.63;;;16.67;100.00
36062;BME280;22123;52.412;20.970;2023-07-02T02:27:52;99358.81;;;16.57;100.00
36062;BME280;22123;52.412;20.970;2023-07-02T02:30:17;99405.09;;;16.85;100.00
36062;BME280;22123;52.412;20.970;2023-07-02T02:32:43;99402.84;;;16.94;100.00
36062;BME280;22123;52.412;20.970;2023-07-02T02:35:09;99373.69;;;16.78;100.00
36062;BME280;22123;52.412;20.970;2023-07-02T02:37:37;99374.75;;;16.77;100.00
36062;BME280;22123;52.412;20.970;2023-07-02T02:40:03;99387.72;;;16.86;100.00
36062;BME280;22123;52.412;20.970;2023-07-02T02:42:29;99366.59;;;16.77;100.00
36062;BME280;22123;52.412;20.970;2023-07-02T02:44:55;99404.16;;;17.03;100.00
36062;BME280;22123;52.412;20.970;2023-07-02T02:47:21;99374.75;;;16.89;100.00
36062;BME280;22123;52.412;20.970;2023-07-02T02:49:46;99380.28;;;16.94;100.00
36062;BME280;22123;52.412;20.970;2023-07-02T02:52:12;99390.41;;;17.10;100.00
36062;BME280;22123;52.412;20.970;2023-07-02T02:54:38;99347.44;;;16.83;100.00
36062;BME280;22123;52.412;20.970;2023-07-02T02:57:04;99400.09;;;17.18;100.00
36062;BME280;22123;52.412;20.970;2023-07-02T02:59:29;99361.59;;;16.97;100.00
36062;BME280;22123;52.412;20.970;2023-07-02T03:01:55;99392.25;;;17.21;100.00
36062;BME280;22123;52.412;20.970;2023-07-02T03:04:21;99364.53;;;17.08;100.00
36062;BME280;22123;52.412;20.970;2023-07-02T03:06:47;99383.38;;;17.26;100.00
36062;BME280;22123;52.412;20.970;2023-07-02T03:09:12;99367.34;;;17.13;100.00
36062;BME280;22123;52.412;20.970;2023-07-02T03:11:38;99393.28;;;17.32;100.00
36062;BME280;22123;52.412;20.970;2023-07-02T03:14:04;99376.28;;;17.25;100.00
36062;BME280;22123;52.412;20.970;2023-07-02T03:16:30;99384.53;;;17.30;100.00
36062;BME280;22123;52.412;20.970;2023-07-02T03:18:55;99361.16;;;17.17;100.00
36062;BME280;22123;52.412;20.970;2023-07-02T03:21:21;99388.41;;;17.34;100.00
36062;BME280;22123;52.412;20.970;2023-07-02T03:23:48;99358.22;;;17.19;100.00
36062;BME280;22123;52.412;20.970;2023-07-02T03:26:14;99384.72;;;17.41;100.00
36062;BME280;22123;52.412;20.970;2023-07-02T03:28:40;99390.03;;;17.47;100.00
36062;BME280;22123;52.412;20.970;2023-07-02T03:31:05;99374.44;;;17.43;100.00
36062;BME280;22123;52.412;20.970;2023-07-02T03:33:31;99390.13;;;17.52;100.00
36062;BME280;22123;52.412;20.970;2023-07-02T03:35:57;99395.22;;;17.49;100.00
36062;BME280;22123;52.412;20.970;2023-07-02T03:38:23;99388.72;;;17.50;100.00
36062;BME280;22123;52.412;20.970;2023-07-02T03:40:49;99361.22;;;17.34;100.00
36062;BME280;22123;52.412;20.970;2023-07-02T03:43:15;99394.34;;;17.60;100.00
36062;BME280;22123;52.412;20.970;2023-07-02T03:45:40;99365.19;;;17.44;100.00
36062;BME280;22123;52.412;20.970;2023-07-02T03:48:06;99387.59;;;17.63;100.00
36062;BME280;22123;52.412;20.970;2023-07-02T03:50:32;99370.75;;;17.49;100.00
36062;BME280;22123;52.412;20.970;2023-07-02T03:52:58;99387.34;;;17.64;100.00
36062;BME280;22123;52.412;20.970;2023-07-02T03:55:24;99354.09;;;17.45;100.00
36062;BME280;22123;52.412;20.970;2023-07-02T03:57:50;99370.66;;;17.61;100.00
36062;BME280;22123;52.412;20.970;2023-07-02T04:00:16;99392.38;;;17.72;100.00
36062;BME280;22123;52.412;20.970;2023-07-02T04:02:42;99377.38;;;17.70;100.00
36062;BME280;22123;52.412;20.970;2023-07-02T04:05:07;99383.75;;;17.76;100.00
36062;BME280;22123;52.412;20.970;2023-07-02T04:07:33;99355.41;;;17.60;100.00
36062;BME280;22123;52.412;20.970;2023-07-02T04:09:59;99382.16;;;17.80;100.00
36062;BME280;22123;52.412;20.970;2023-07-02T04:12:26;99366.75;;;17.68;100.00
36062;BME280;22123;52.412;20.970;2023-07-02T04:14:52;99310.47;;;17.40;100.00
36062;BME280;22123;52.412;20.970;2023-07-02T04:17:17;99376.06;;;17.89;100.00
36062;BME280;22123;52.412;20.970;2023-07-02T04:19:43;99363.03;;;17.75;100.00
36062;BME280;22123;52.412;20.970;2023-07-02T04:22:09;99376.69;;;17.92;100.00
36062;BME280;22123;52.412;20.970;2023-07-02T04:24:35;99341.66;;;17.66;100.00
36062;BME280;22123;52.412;20.970;2023-07-02T04:27:00;99381.50;;;17.89;100.00
36062;BME280;22123;52.412;20.970;2023-07-02T04:29:26;99360.13;;;17.81;100.00
36062;BME280;22123;52.412;20.970;2023-07-02T04:31:52;99391.44;;;17.96;100.00
36062;BME280;22123;52.412;20.970;2023-07-02T04:34:18;99366.31;;;17.77;100.00
36062;BME280;22123;52.412;20.970;2023-07-02T04:36:43;99391.78;;;17.99;100.00
36062;BME280;22123;52.412;20.970;2023-07-02T04:39:09;99385.91;;;17.90;100.00
36062;BME280;22123;52.412;20.970;2023-07-02T04:41:35;99386.13;;;17.89;100.00
36062;BME280;22123;52.412;20.970;2023-07-02T04:44:01;99366.31;;;17.77;100.00
36062;BME280;22123;52.412;20.970;2023-07-02T04:46:26;99393.03;;;17.92;100.00
36062;BME280;22123;52.412;20.970;2023-07-02T04:48:52;99374.47;;;17.77;100.00
36062;BME280;22123;52.412;20.970;2023-07-02T04:51:19;99398.69;;;17.90;100.00
36062;BME280;22123;52.412;20.970;2023-07-02T04:53:45;99353.94;;;17.69;100.00
36062;BME280;22123;52.412;20.970;2023-07-02T04:56:11;99396.31;;;17.94;100.00
36062;BME280;22123;52.412;20.970;2023-07-02T04:58:37;99360.81;;;17.71;100.00
36062;BME280;22123;52.412;20.970;2023-07-02T05:01:02;99364.19;;;17.79;100.00
36062;BME280;22123;52.412;20.970;2023-07-02T05:03:28;99388.47;;;17.97;100.00
36062;BME280;22123;52.412;20.970;2023-07-02T05:05:54;99366.47;;;17.87;100.00
36062;BME280;22123;52.412;20.970;2023-07-02T05:08:20;99372.66;;;17.82;100.00
36062;BME280;22123;52.412;20.970;2023-07-02T05:10:46;99393.00;;;18.08;100.00
36062;BME280;22123;52.412;20.970;2023-07-02T05:13:12;99379.88;;;18.05;100.00
36062;BME280;22123;52.412;20.970;2023-07-02T05:15:38;99396.88;;;18.13;100.00
36062;BME280;22123;52.412;20.970;2023-07-02T05:18:03;99380.88;;;17.99;100.00
36062;BME280;22123;52.412;20.970;2023-07-02T05:20:29;99357.28;;;18.05;100.00
36062;BME280;22123;52.412;20.970;2023-07-02T05:22:55;99349.44;;;18.08;100.00
36062;BME280;22123;52.412;20.970;2023-07-02T05:25:21;99386.47;;;18.27;100.00
36062;BME280;22123;52.412;20.970;2023-07-02T05:27:47;99383.84;;;17.98;100.00
36062;BME280;22123;52.412;20.970;2023-07-02T05:30:13;99402.81;;;18.10;100.00
36062;BME280;22123;52.412;20.970;2023-07-02T05:32:38;99401.09;;;18.03;100.00
36062;BME280;22123;52.412;20.970;2023-07-02T05:35:04;99403.81;;;18.03;100.00
36062;BME280;22123;52.412;20.970;2023-07-02T05:37:30;99414.69;;;18.20;100.00
36062;BME280;22123;52.412;20.970;2023-07-02T05:39:56;99408.53;;;18.25;100.00
36062;BME280;22123;52.412;20.970;2023-07-02T05:42:22;99395.06;;;18.18;100.00
36062;BME280;22123;52.412;20.970;2023-07-02T05:44:48;99396.53;;;18.26;100.00
36062;BME280;22123;52.412;20.970;2023-07-02T05:47:13;99410.97;;;18.43;100.00
36062;BME280;22123;52.412;20.970;2023-07-02T05:49:41;99414.13;;;18.35;100.00
36062;BME280;22123;52.412;20.970;2023-07-02T05:52:07;99405.75;;;18.42;100.00
36062;BME280;22123;52.412;20.970;2023-07-02T05:54:33;99398.69;;;18.41;100.00
36062;BME280;22123;52.412;20.970;2023-07-02T05:56:59;99402.22;;;18.41;100.00
36062;BME280;22123;52.412;20.970;2023-07-02T05:59:25;99416.91;;;18.57;100.00
36062;BME280;22123;52.412;20.970;2023-07-02T06:01:50;99369.44;;;18.36;100.00
36062;BME280;22123;52.412;20.970;2023-07-02T06:04:16;99402.84;;;18.66;100.00
36062;BME280;22123;52.412;20.970;2023-07-02T06:06:42;99386.41;;;18.60;100.00
36062;BME280;22123;52.412;20.970;2023-07-02T06:09:08;99381.19;;;18.76;100.00
36062;BME280;22123;52.412;20.970;2023-07-02T06:11:34;99418.88;;;19.01;100.00
36062;BME280;22123;52.412;20.970;2023-07-02T06:14:00;99406.34;;;19.00;100.00
36062;BME280;22123;52.412;20.970;2023-07-02T06:16:26;99413.41;;;19.01;100.00
36062;BME280;22123;52.412;20.970;2023-07-02T06:18:51;99422.88;;;19.16;100.00
36062;BME280;22123;52.412;20.970;2023-07-02T06:21:17;99428.41;;;19.21;100.00
36062;BME280;22123;52.412;20.970;2023-07-02T06:23:43;99403.03;;;18.98;100.00
36062;BME280;22123;52.412;20.970;2023-07-02T06:26:10;99436.22;;;19.12;100.00
36062;BME280;22123;52.412;20.970;2023-07-02T06:28:36;99429.91;;;19.11;100.00
36062;BME280;22123;52.412;20.970;2023-07-02T06:31:02;99410.31;;;18.92;100.00
36062;BME280;22123;52.412;20.970;2023-07-02T06:33:28;99384.28;;;18.85;100.00
36062;BME280;22123;52.412;20.970;2023-07-02T06:35:54;99419.50;;;19.08;100.00
36062;BME280;22123;52.412;20.970;2023-07-02T06:38:21;99405.31;;;19.06;100.00
36062;BME280;22123;52.412;20.970;2023-07-02T06:40:46;99413.19;;;19.25;100.00
36062;BME280;22123;52.412;20.970;2023-07-02T06:43:12;99396.91;;;19.13;100.00
36062;BME280;22123;52.412;20.970;2023-07-02T06:45:38;99414.81;;;19.26;100.00
36062;BME280;22123;52.412;20.970;2023-07-02T06:48:04;99429.50;;;19.47;100.00
36062;BME280;22123;52.412;20.970;2023-07-02T06:50:30;99440.47;;;19.52;100.00
36062;BME280;22123;52.412;20.970;2023-07-02T06:52:56;99410.78;;;19.56;100.00
36062;BME280;22123;52.412;20.970;2023-07-02T06:55:22;99410.34;;;19.69;100.00
36062;BME280;22123;52.412;20.970;2023-07-02T06:57:48;99415.16;;;19.84;100.00
36062;BME280;22123;52.412;20.970;2023-07-02T07:00:14;99435.38;;;19.83;100.00
36062;BME280;22123;52.412;20.970;2023-07-02T07:02:40;99400.50;;;19.68;100.00
36062;BME280;22123;52.412;20.970;2023-07-02T07:05:06;99389.13;;;19.76;100.00
36062;BME280;22123;52.412;20.970;2023-07-02T07:07:32;99395.31;;;19.67;100.00
36062;BME280;22123;52.412;20.970;2023-07-02T07:09:58;99420.31;;;19.80;100.00
36062;BME280;22123;52.412;20.970;2023-07-02T07:12:23;99413.13;;;19.74;100.00
36062;BME280;22123;52.412;20.970;2023-07-02T07:14:49;99408.06;;;19.61;100.00
36062;BME280;22123;52.412;20.970;2023-07-02T07:17:15;99430.44;;;19.58;100.00
36062;BME280;22123;52.412;20.970;2023-07-02T07:19:41;99439.13;;;19.55;100.00
36062;BME280;22123;52.412;20.970;2023-07-02T07:22:07;99414.66;;;19.38;100.00
36062;BME280;22123;52.412;20.970;2023-07-02T07:24:33;99435.63;;;19.32;100.00
36062;BME280;22123;52.412;20.970;2023-07-02T07:26:59;99443.00;;;19.09;100.00
36062;BME280;22123;52.412;20.970;2023-07-02T07:29:24;99433.13;;;18.86;100.00
36062;BME280;22123;52.412;20.970;2023-07-02T07:31:50;99438.59;;;18.86;100.00
36062;BME280;22123;52.412;20.970;2023-07-02T07:34:16;99438.97;;;18.56;100.00
36062;BME280;22123;52.412;20.970;2023-07-02T07:36:42;99446.97;;;18.46;100.00
36062;BME280;22123;52.412;20.970;2023-07-02T07:39:08;99437.25;;;18.33;100.00
36062;BME280;22123;52.412;20.970;2023-07-02T07:41:34;99438.50;;;18.25;100.00
36062;BME280;22123;52.412;20.970;2023-07-02T07:44:00;99425.69;;;18.25;100.00
36062;BME280;22123;52.412;20.970;2023-07-02T07:46:26;99435.53;;;18.27;100.00
36062;BME280;22123;52.412;20.970;2023-07-02T07:48:51;99445.72;;;18.36;100.00
36062;BME280;22123;52.412;20.970;2023-07-02T07:51:17;99450.06;;;18.32;100.00
36062;BME280;22123;52.412;20.970;2023-07-02T07:53:43;99440.47;;;18.13;100.00
36062;BME280;22123;52.412;20.970;2023-07-02T07:56:09;99424.25;;;17.89;100.00
36062;BME280;22123;52.412;20.970;2023-07-02T07:58:35;99474.38;;;18.05;100.00
36062;BME280;22123;52.412;20.970;2023-07-02T08:01:01;99477.66;;;18.07;100.00
36062;BME280;22123;52.412;20.970;2023-07-02T08:03:26;99475.84;;;17.96;100.00
36062;BME280;22123;52.412;20.970;2023-07-02T08:05:52;99455.63;;;17.63;100.00
36062;BME280;22123;52.412;20.970;2023-07-02T08:08:18;99454.88;;;17.67;100.00
36062;BME280;22123;52.412;20.970;2023-07-02T08:10:44;99472.72;;;17.75;100.00
36062;BME280;22123;52.412;20.970;2023-07-02T08:13:10;99452.97;;;17.68;100.00
36062;BME280;22123;52.412;20.970;2023-07-02T08:15:35;99471.81;;;17.98;100.00
36062;BME280;22123;52.412;20.970;2023-07-02T08:18:01;99416.28;;;17.70;100.00
36062;BME280;22123;52.412;20.970;2023-07-02T08:20:27;99488.91;;;18.28;100.00
36062;BME280;22123;52.412;20.970;2023-07-02T08:22:53;99469.69;;;18.34;100.00
36062;BME280;22123;52.412;20.970;2023-07-02T08:25:19;99411.09;;;17.98;100.00
36062;BME280;22123;52.412;20.970;2023-07-02T08:27:45;99448.78;;;18.23;100.00
36062;BME280;22123;52.412;20.970;2023-07-02T08:30:11;99453.34;;;18.34;100.00
36062;BME280;22123;52.412;20.970;2023-07-02T08:32:36;99467.53;;;18.53;100.00
36062;BME280;22123;52.412;20.970;2023-07-02T08:35:02;99487.66;;;18.69;100.00
36062;BME280;22123;52.412;20.970;2023-07-02T08:37:28;99464.94;;;18.64;100.00
36062;BME280;22123;52.412;20.970;2023-07-02T08:39:54;99482.53;;;18.90;100.00
36062;BME280;22123;52.412;20.970;2023-07-02T08:42:20;99476.09;;;18.79;100.00
36062;BME280;22123;52.412;20.970;2023-07-02T08:44:47;99485.34;;;18.95;100.00
36062;BME280;22123;52.412;20.970;2023-07-02T08:47:13;99465.94;;;18.74;100.00
36062;BME280;22123;52.412;20.970;2023-07-02T08:49:39;99478.97;;;19.06;100.00
36062;BME280;22123;52.412;20.970;2023-07-02T08:52:05;99456.50;;;18.99;100.00
36062;BME280;22123;52.412;20.970;2023-07-02T08:54:31;99463.59;;;19.22;100.00
36062;BME280;22123;52.412;20.970;2023-07-02T08:56:57;99494.16;;;19.69;100.00
36062;BME280;22123;52.412;20.970;2023-07-02T08:59:23;99475.22;;;19.57;100.00
36062;BME280;22123;52.412;20.970;2023-07-02T09:01:50;99489.75;;;19.62;100.00
36062;BME280;22123;52.412;20.970;2023-07-02T09:04:18;99470.25;;;19.54;100.00
36062;BME280;22123;52.412;20.970;2023-07-02T09:06:45;99424.56;;;19.22;100.00
36062;BME280;22123;52.412;20.970;2023-07-02T09:09:11;99479.84;;;19.34;100.00
36062;BME280;22123;52.412;20.970;2023-07-02T09:11:49;99487.53;;;19.37;100.00
36062;BME280;22123;52.412;20.970;2023-07-02T09:14:28;99492.97;;;19.37;100.00
36062;BME280;22123;52.412;20.970;2023-07-02T09:17:06;99483.91;;;19.32;100.00
36062;BME280;22123;52.412;20.970;2023-07-02T09:19:32;99465.00;;;19.25;100.00
36062;BME280;22123;52.412;20.970;2023-07-02T09:21:59;99489.00;;;19.72;100.00
36062;BME280;22123;52.412;20.970;2023-07-02T09:24:25;99468.16;;;19.83;100.00
36062;BME280;22123;52.412;20.970;2023-07-02T09:26:53;99463.38;;;20.01;100.00
36062;BME280;22123;52.412;20.970;2023-07-02T09:29:25;99488.50;;;20.30;100.00
36062;BME280;22123;52.412;20.970;2023-07-02T09:31:51;99457.94;;;20.01;100.00
36062;BME280;22123;52.412;20.970;2023-07-02T09:34:17;99470.09;;;19.88;100.00
36062;BME280;22123;52.412;20.970;2023-07-02T09:36:43;99499.28;;;20.14;100.00
36062;BME280;22123;52.412;20.970;2023-07-02T09:39:13;99504.53;;;20.16;100.00
36062;BME280;22123;52.412;20.970;2023-07-02T09:41:42;99508.72;;;20.61;100.00
36062;BME280;22123;52.412;20.970;2023-07-02T09:44:09;99475.44;;;20.70;100.00
36062;BME280;22123;52.412;20.970;2023-07-02T09:46:37;99451.75;;;20.86;100.00
36062;BME280;22123;52.412;20.970;2023-07-02T09:49:06;99489.22;;;21.43;100.00
36062;BME280;22123;52.412;20.970;2023-07-02T09:51:35;99487.28;;;21.39;100.00
36062;BME280;22123;52.412;20.970;2023-07-02T09:54:01;99470.56;;;21.30;100.00
36062;BME280;22123;52.412;20.970;2023-07-02T09:56:26;99463.88;;;21.05;100.00
36062;BME280;22123;52.412;20.970;2023-07-02T09:58:52;99490.13;;;21.01;100.00
36062;BME280;22123;52.412;20.970;2023-07-02T10:01:18;99470.31;;;20.83;100.00
36062;BME280;22123;52.412;20.970;2023-07-02T10:03:44;99459.44;;;20.94;100.00
36062;BME280;22123;52.412;20.970;2023-07-02T10:06:10;99486.97;;;21.25;100.00
36062;BME280;22123;52.412;20.970;2023-07-02T10:08:36;99477.78;;;21.51;100.00
36062;BME280;22123;52.412;20.970;2023-07-02T10:11:12;99486.63;;;21.79;100.00
36062;BME280;22123;52.412;20.970;2023-07-02T10:13:39;99492.13;;;21.84;100.00
36062;BME280;22123;52.412;20.970;2023-07-02T10:16:06;99453.19;;;21.72;100.00
36062;BME280;22123;52.412;20.970;2023-07-02T10:18:32;99480.88;;;21.76;100.00
36062;BME280;22123;52.412;20.970;2023-07-02T10:20:58;99468.78;;;21.61;100.00
36062;BME280;22123;52.412;20.970;2023-07-02T10:23:34;99498.88;;;21.51;100.00
36062;BME280;22123;52.412;20.970;2023-07-02T10:26:16;99476.81;;;21.20;100.00
36062;BME280;22123;52.412;20.970;2023-07-02T10:28:42;99489.31;;;21.06;100.00
36062;BME280;22123;52.412;20.970;2023-07-02T10:31:19;99501.88;;;20.96;100.00
36062;BME280;22123;52.412;20.970;2023-07-02T10:33:46;99506.41;;;20.80;100.00
36062;BME280;22123;52.412;20.970;2023-07-02T10:36:23;99478.06;;;20.59;100.00
36062;BME280;22123;52.412;20.970;2023-07-02T10:38:49;99477.72;;;20.50;100.00
36062;BME280;22123;52.412;20.970;2023-07-02T10:43:50;99461.97;;;20.25;100.00
36062;BME280;22123;52.412;20.970;2023-07-02T10:46:22;99503.34;;;20.39;100.00
36062;BME280;22123;52.412;20.970;2023-07-02T10:48:55;99504.28;;;20.23;100.00
36062;BME280;22123;52.412;20.970;2023-07-02T10:51:21;99499.16;;;20.26;100.00
36062;BME280;22123;52.412;20.970;2023-07-02T10:53:58;99506.03;;;20.02;100.00
36062;BME280;22123;52.412;20.970;2023-07-02T10:56:25;99483.03;;;19.75;100.00
36062;BME280;22123;52.412;20.970;2023-07-02T10:58:51;99528.00;;;19.90;100.00
36062;BME280;22123;52.412;20.970;2023-07-02T11:01:24;99518.31;;;20.04;100.00
36062;BME280;22123;52.412;20.970;2023-07-02T11:03:57;99494.25;;;20.01;100.00
36062;BME280;22123;52.412;20.970;2023-07-02T11:06:23;99495.38;;;20.05;100.00
36062;BME280;22123;52.412;20.970;2023-07-02T11:08:49;99507.66;;;20.03;100.00
36062;BME280;22123;52.412;20.970;2023-07-02T11:11:15;99506.66;;;19.87;100.00
36062;BME280;22123;52.412;20.970;2023-07-02T11:13:45;99481.69;;;19.78;100.00
36062;BME280;22123;52.412;20.970;2023-07-02T11:16:25;99512.19;;;19.92;100.00
36062;BME280;22123;52.412;20.970;2023-07-02T11:19:11;99501.56;;;20.23;100.00
36062;BME280;22123;52.412;20.970;2023-07-02T11:21:37;99473.31;;;20.44;100.00
36062;BME280;22123;52.412;20.970;2023-07-02T11:24:07;99471.94;;;20.74;100.00
36062;BME280;22123;52.412;20.970;2023-07-02T11:26:37;99470.78;;;21.23;100.00
36062;BME280;22123;52.412;20.970;2023-07-02T11:29:03;99482.47;;;21.66;100.00
36062;BME280;22123;52.412;20.970;2023-07-02T11:31:29;99469.06;;;21.75;100.00
36062;BME280;22123;52.412;20.970;2023-07-02T11:33:54;99479.47;;;21.68;100.00
36062;BME280;22123;52.412;20.970;2023-07-02T11:36:24;99478.84;;;21.45;100.00
36062;BME280;22123;52.412;20.970;2023-07-02T11:38:50;99459.63;;;21.35;100.00
36062;BME280;22123;52.412;20.970;2023-07-02T11:41:18;99506.19;;;21.40;100.00
36062;BME280;22123;52.412;20.970;2023-07-02T11:43:44;99432.16;;;21.09;100.00
36062;BME280;22123;52.412;20.970;2023-07-02T11:46:10;99477.22;;;21.49;100.00
36062;BME280;22123;52.412;20.970;2023-07-02T11:48:36;99471.25;;;21.68;100.00
36062;BME280;22123;52.412;20.970;2023-07-02T11:51:02;99471.84;;;21.91;100.00
36062;BME280;22123;52.412;20.970;2023-07-02T11:53:28;99477.88;;;21.93;100.00
36062;BME280;22123;52.412;20.970;2023-07-02T11:55:53;99467.19;;;21.81;100.00
36062;BME280;22123;52.412;20.970;2023-07-02T11:58:19;99454.88;;;21.88;100.00
36062;BME280;22123;52.412;20.970;2023-07-02T12:00:45;99478.41;;;21.79;100.00
36062;BME280;22123;52.412;20.970;2023-07-02T12:03:11;99505.78;;;21.79;100.00
36062;BME280;22123;52.412;20.970;2023-07-02T12:05:37;99468.94;;;21.39;100.00
36062;BME280;22123;52.412;20.970;2023-07-02T12:08:03;99486.47;;;21.38;100.00
36062;BME280;22123;52.412;20.970;2023-07-02T12:10:29;99498.00;;;21.50;100.00
36062;BME280;22123;52.412;20.970;2023-07-02T12:12:55;99480.16;;;21.32;100.00
36062;BME280;22123;52.412;20.970;2023-07-02T12:15:21;99465.38;;;21.39;100.00
36062;BME280;22123;52.412;20.970;2023-07-02T12:17:46;99477.50;;;21.53;100.00
36062;BME280;22123;52.412;20.970;2023-07-02T12:20:12;99480.31;;;21.74;100.00
36062;BME280;22123;52.412;20.970;2023-07-02T12:22:38;99479.75;;;21.66;100.00
36062;BME280;22123;52.412;20.970;2023-07-02T12:25:04;99510.25;;;22.11;100.00
36062;BME280;22123;52.412;20.970;2023-07-02T12:27:30;99472.97;;;22.15;100.00
36062;BME280;22123;52.412;20.970;2023-07-02T12:29:56;99491.66;;;22.44;100.00
36062;BME280;22123;52.412;20.970;2023-07-02T12:32:22;99472.72;;;22.48;100.00
36062;BME280;22123;52.412;20.970;2023-07-02T12:34:48;99488.06;;;22.64;100.00
36062;BME280;22123;52.412;20.970;2023-07-02T12:37:14;99478.22;;;22.53;100.00
36062;BME280;22123;52.412;20.970;2023-07-02T12:39:40;99484.50;;;22.58;100.00